Latest Coastal Weather Observations for Bunbury

IDW60701

Issued at 4:55 pm WST Tuesday 29 July 2014 (issued every 10 minutes, with the page automatically refreshed every 10 minutes)

About coastal observations | Map of coastal stations | Coastal observations for WA | Marine services | Other Formats
Station Details ID: 009965 Name: BUNBURY Lat: -33.36 Lon: 115.64 Height: 5.2 m
Data from the previous 72 hours. | See also: Recent months at Bunbury
Date/Time
WST
Temp

°C
Wind Pressure Rain
since 9am
mm
Weather Cloud Vis
km
Sea
Height
m
Swell
Dir
 
Speed
knots
Gust
knots
hPa Trend Height
m
Period
s
Dir
29/04:30pm 16.3 NW 7 10 1021.8 - 0.0 - - - - - - -
29/04:00pm 16.9 NW 7 11 1021.8 - 0.0 - - - - - - -
29/03:30pm 17.4 NW 6 10 1021.6 - 0.0 - - - - - - -
29/03:00pm 16.0 W 9 14 1021.8 - 0.0 - - - - - - -
29/02:30pm 17.7 WNW 8 11 1021.8 - 0.0 - - - - - - -
29/02:00pm 18.0 WNW 9 14 1021.8 - 0.0 - - - - - - -
29/01:30pm 18.4 WNW 9 14 1021.9 - 0.0 - - - - - - -
29/01:00pm 18.5 WNW 10 14 1022.1 - 0.0 - - - - - - -
29/12:30pm 18.3 WNW 10 14 1022.3 - 0.0 - - - - - - -
29/12:00pm 18.3 NW 8 11 1022.6 - 0.0 - - - - - - -
29/11:30am 17.8 NW 10 14 1022.9 - 0.0 - - - - - - -
29/11:00am 17.6 WNW 7 13 1023.2 - 0.0 - - - - - - -
29/10:30am 17.0 NW 9 13 1023.3 - 0.0 - - - - - - -
29/10:00am 17.1 NW 6 11 1023.2 - 0.0 - - - - - - -
29/09:30am 17.0 NW 8 12 1022.8 - 0.0 - - - - - - -
29/09:00am 16.4 WNW 5 9 1022.7 - 0.4 - - - - - - -
29/08:30am 15.9 WNW 5 7 1022.6 - 0.4 - - - - - - -
29/08:00am 15.5 WSW 4 7 1022.5 - 0.4 - - - - - - -
29/07:30am 15.5 W 10 16 1022.2 - 0.4 - - - - - - -
29/07:00am 16.0 WNW 6 9 1021.8 - 0.4 - - - - - - -
29/06:30am 15.9 W 8 12 1021.6 - 0.4 - - - - - - -
29/06:00am 16.0 W 7 11 1021.5 - 0.4 - - - - - - -
29/05:30am 16.0 WNW 8 14 1021.2 - 0.4 - - - - - - -
29/05:00am 15.8 W 7 12 1021.2 - 0.4 - - - - - - -
29/04:30am 15.5 WNW 6 8 1021.2 - 0.4 - - - - - - -
29/04:00am 15.8 W 8 11 1021.4 - 0.4 - - - - - - -
29/03:30am 15.7 W 8 13 1021.2 - 0.4 - - - - - - -
29/03:00am 15.5 W 7 13 1021.3 - 0.4 - - - - - - -
29/02:30am 15.1 W 6 10 1021.3 - 0.4 - - - - - - -
29/02:00am 15.1 W 8 14 1021.3 - 0.4 - - - - - - -
29/01:30am 14.8 W 5 7 1021.3 - 0.4 - - - - - - -
29/01:00am 14.4 WNW 4 8 1021.6 - 0.4 - - - - - - -
29/12:30am 14.2 W 5 6 1021.7 - 0.4 - - - - - - -
29/12:00am 11.9 NW 2 3 1021.9 - 0.4 Recent precip. - - - - - -
 
Date/Time
WST
Temp

°C
Wind Pressure Rain
since 9am
mm
Weather Cloud Vis
km
Sea
Height
m
Swell
Dir
 
Speed
knots
Gust
knots
hPa Trend Height
m
Period
s
Dir
28/11:30pm 13.4 WNW 3 4 1021.9 - 0.4 - - - - - - -
28/11:00pm 14.8 W 11 20 1022.3 - 0.2 - - - - - - -
28/10:30pm 15.4 W 8 13 1022.1 - 0.2 - - - - - - -
28/10:00pm 15.0 W 6 10 1022.0 - 0.2 - - - - - - -
28/09:30pm 15.2 W 4 15 1022.2 - 0.2 - - - - - - -
28/09:00pm 14.5 W 3 5 1022.2 - 0.2 - - - - - - -
28/08:30pm 14.6 WSW 3 5 1022.0 - 0.2 - - - - - - -
28/08:00pm 14.9 W 4 6 1022.0 - 0.2 - - - - - - -
28/07:30pm 15.5 W 7 9 1022.0 - 0.2 - - - - - - -
28/07:00pm 15.5 W 6 10 1021.8 - 0.2 - - - - - - -
28/06:30pm 15.2 W 5 7 1021.7 - 0.2 - - - - - - -
28/06:00pm 15.5 W 8 15 1021.4 - 0.2 - - - - - - -
28/05:30pm 16.0 W 7 12 1021.2 - 0.2 - - - - - - -
28/05:00pm 16.3 W 7 10 1020.9 - 0.2 - - - - - - -
28/04:30pm 17.4 W 7 13 1020.8 - 0.2 - - - - - - -
28/04:00pm 17.7 W 9 15 1020.7 - 0.2 - - - - - - -
28/03:30pm 17.6 W 8 11 1020.5 - 0.2 - - - - - - -
28/03:00pm 16.6 WNW 8 13 1020.4 - 0.2 - - - - - - -
28/02:30pm 16.7 WNW 8 13 1020.5 - 0.2 - - - - - - -
28/02:00pm 17.6 WNW 8 12 1020.6 - 0.2 - - - - - - -
28/01:30pm 17.1 W 7 12 1020.6 - 0.2 - - - - - - -
28/01:00pm 17.0 WNW 6 10 1021.1 - 0.2 - - - - - - -
28/12:30pm 18.3 WNW 8 11 1021.5 - 0.0 - - - - - - -
28/12:00pm 17.6 WNW 10 15 1021.7 - 0.0 - - - - - - -
28/11:30am 17.5 W 11 17 1021.9 - 0.0 - - - - - - -
28/11:00am 17.4 W 8 13 1022.1 - 0.0 - - - - - - -
28/10:30am 17.1 WSW 8 13 1022.1 - 0.0 - - - - - - -
28/10:00am 17.0 WSW 9 13 1022.0 - 0.0 - - - - - - -
28/09:30am 16.5 W 10 17 1021.6 - 0.0 - - - - - - -
28/09:00am 17.1 W 10 16 1021.3 - 1.2 - - - - - - -
28/08:30am 16.8 W 9 13 1021.3 - 1.2 - - - - - - -
28/08:00am 15.7 W 8 13 1020.8 - 1.2 - - - - - - -
28/07:30am 15.5 W 6 10 1020.5 - 1.2 - - - - - - -
28/07:00am 15.6 W 10 16 1020.1 - 1.2 - - - - - - -
28/06:30am 15.0 W 7 11 1020.0 - 1.2 - - - - - - -
28/06:00am 15.1 WSW 9 13 1019.8 - 1.2 - - - - - - -
28/05:30am 15.4 W 8 12 1019.8 - 1.2 - - - - - - -
28/05:00am 14.9 WSW 9 14 1019.9 - 1.2 - - - - - - -
28/04:30am 15.1 W 8 13 1019.7 - 1.2 - - - - - - -
28/04:00am 15.4 W 10 14 1020.1 - 1.2 - - - - - - -
28/03:30am 15.0 W 9 15 1020.2 - 1.2 - - - - - - -
28/03:00am 14.6 WSW 10 18 1020.2 - 1.2 - - - - - - -
28/02:30am 14.4 WNW 6 9 1020.2 - 1.2 - - - - - - -
28/02:00am 14.7 WNW 9 16 1020.5 - 1.2 - - - - - - -
28/01:30am 14.7 W 8 12 1020.5 - 1.0 - - - - - - -
28/01:00am 14.2 W 9 16 1020.6 - 1.0 - - - - - - -
28/12:30am 15.1 W 9 13 1020.6 - 1.0 - - - - - - -
28/12:00am 14.7 W 11 18 1020.9 - 1.0 Rain - - - - - -
 
Date/Time
WST
Temp

°C
Wind Pressure Rain
since 9am
mm
Weather Cloud Vis
km
Sea
Height
m
Swell
Dir
 
Speed
knots
Gust
knots
hPa Trend Height
m
Period
s
Dir
27/11:30pm 15.3 W 9 14 1020.9 - 0.8 - - - - - - -
27/11:00pm 15.5 W 10 17 1021.2 - 0.8 - - - - - - -
27/10:30pm 15.4 W 8 11 1021.0 - 0.8 - - - - - - -
27/10:00pm 15.7 W 8 13 1021.2 - 0.8 - - - - - - -
27/09:30pm 15.2 W 8 11 1021.2 - 0.8 - - - - - - -
27/09:00pm 15.2 W 8 11 1021.1 - 0.8 - - - - - - -
27/08:30pm 15.2 W 9 13 1021.2 - 0.8 - - - - - - -
27/08:00pm 15.1 W 9 16 1021.3 - 0.8 - - - - - - -
27/07:30pm 15.1 W 10 17 1021.0 - 0.8 - - - - - - -
27/07:00pm 15.2 WSW 7 13 1020.8 - 0.8 - - - - - - -
27/06:30pm 15.8 W 9 13 1020.6 - 0.8 - - - - - - -
27/06:00pm 15.9 W 9 15 1020.4 - 0.8 - - - - - - -
27/05:30pm 15.7 W 11 18 1020.1 - 0.8 - - - - - - -
27/05:00pm 15.7 W 10 16 1019.8 - 0.8 - - - - - - -
27/04:30pm 16.8 W 10 14 1019.7 - 0.8 - - - - - - -
27/04:00pm 17.3 W 9 14 1019.6 - 0.8 - - - - - - -
27/03:30pm 16.8 W 8 13 1019.6 - 0.8 - - - - - - -
27/03:00pm 18.0 W 9 15 1019.3 - 0.8 - - - - - - -
27/02:30pm 17.6 W 9 15 1019.1 - 0.8 - - - - - - -
27/02:00pm 17.8 W 8 13 1019.2 - 0.8 - - - - - - -
27/01:30pm 15.9 WSW 8 13 1019.4 - 0.8 - - - - - - -
27/01:00pm 17.4 W 8 13 1019.5 - 0.0 - - - - - - -
27/12:30pm 18.0 W 8 13 1019.6 - 0.0 - - - - - - -
27/12:00pm 18.2 W 9 15 1020.1 - 0.0 - - - - - - -
27/11:30am 16.9 W 12 21 1020.5 - 0.0 - - - - - - -
27/11:00am 18.1 W 10 16 1020.5 - 0.0 - - - - - - -
27/10:30am 17.1 W 11 16 1020.6 - 0.0 - - - - - - -
27/10:00am 17.7 W 12 18 1020.6 - 0.0 - - - - - - -
27/09:30am 16.4 W 9 17 1020.2 - 0.0 - - - - - - -
27/09:00am 17.2 W 10 18 1019.8 - 7.6 - - - - - - -
27/08:30am 16.3 W 10 14 1019.4 - 7.6 - - - - - - -
27/08:00am 15.7 W 8 11 1019.2 - 7.6 - - - - - - -
27/07:30am 14.3 W 3 5 1018.8 - 7.6 - - - - - - -
27/07:00am 14.6 WSW 4 8 1018.6 - 7.6 - - - - - - -
27/06:30am 15.0 WSW 8 13 1018.3 - 7.6 - - - - - - -
27/06:00am 14.5 SW 3 4 1017.8 - 7.6 Recent precip. - - - - - -
27/05:30am 14.4 SW 7 11 1017.8 - 7.6 - - - - - - -
27/05:00am 14.1 WNW 10 16 1017.7 - 7.4 - - - - - - -
27/04:30am 14.0 WNW 8 15 1017.7 - 7.4 - - - - - - -
27/04:00am 13.6 W 9 15 1018.2 - 6.2 - - - - - - -
27/03:30am 13.5 WSW 9 15 1017.8 - 4.4 - - - - - - -
27/03:00am 15.7 WNW 13 21 1017.6 - 4.0 - - - - - - -
27/02:30am 15.8 WNW 11 16 1017.7 - 4.0 - - - - - - -
27/02:00am 15.2 WNW 9 15 1017.9 - 4.0 - - - - - - -
27/01:30am 16.1 W 11 20 1018.0 - 3.8 - - - - - - -
27/01:00am 15.7 WNW 12 16 1018.1 - 3.8 - - - - - - -
27/12:30am 15.7 WNW 13 20 1018.2 - 3.8 - - - - - - -
27/12:00am 15.7 WNW 12 20 1018.3 - 3.8 - - - - - - -
 
Date/Time
WST
Temp

°C
Wind Pressure Rain
since 9am
mm
Weather Cloud Vis
km
Sea
Height
m
Swell
Dir
 
Speed
knots
Gust
knots
hPa Trend Height
m
Period
s
Dir
26/11:30pm 15.6 WNW 12 19 1018.3 - 3.8 - - - - - - -
26/11:00pm 15.7 WNW 11 17 1018.1 - 3.8 - - - - - - -
26/10:30pm 15.8 WNW 12 17 1018.1 - 3.8 - - - - - - -
26/10:00pm 15.6 W 9 14 1018.2 - 3.8 - - - - - - -
26/09:30pm 15.4 NW 9 12 1017.9 - 3.8 - - - - - - -
26/09:00pm 15.4 W 8 12 1017.9 - 3.8 - - - - - - -
26/08:30pm 15.5 W 9 15 1017.8 - 3.8 - - - - - - -
26/08:00pm 15.6 W 10 16 1017.7 - 3.8 - - - - - - -
26/07:30pm 15.1 W 8 15 1017.6 - 3.8 - - - - - - -
26/07:00pm 15.2 W 9 16 1017.3 - 3.8 - - - - - - -
26/06:30pm 15.1 W 8 14 1017.1 - 3.8 - - - - - - -
26/06:00pm 14.9 W 8 11 1016.7 - 3.8 - - - - - - -
26/05:30pm 14.5 W 8 15 1016.4 - 3.8 - - - - - - -
26/05:00pm 15.5 W 8 14 1016.2 - 3.8 - - - - - - -

Other Formats:

Comma delimited format used in spreadsheet applications
http://www.bom.gov.au/fwo/IDW60701/IDW60701.94604.axf

JavaScript Object Notation format (JSON) in row-major order
http://www.bom.gov.au/fwo/IDW60701/IDW60701.94604.json